createdAt,value
2022-08-24T00:00:41.240Z,4.13
2022-08-24T00:05:43.262Z,2.30
2022-08-24T00:10:45.833Z,2.40
2022-08-24T00:15:47.947Z,5.47
2022-08-24T00:20:49.957Z,3.78
2022-08-24T00:25:52.234Z,3.17
2022-08-24T00:30:54.347Z,3.00
2022-08-24T00:35:56.426Z,2.30
2022-08-24T00:40:58.262Z,3.85
2022-08-24T00:46:20.792Z,6.10
2022-08-24T00:51:35.173Z,5.28
2022-08-24T00:56:48.913Z,5.43
2022-08-24T01:06:53.809Z,4.07
2022-08-24T01:11:56.644Z,3.88
2022-08-24T01:17:17.005Z,5.38
2022-08-24T01:22:54.430Z,5.80
2022-08-24T01:28:00.333Z,5.28
2022-08-24T01:33:07.529Z,5.85
2022-08-24T01:38:11.677Z,6.05
2022-08-24T01:53:48.468Z,5.18
2022-08-24T01:58:50.578Z,5.78
2022-08-24T02:03:52.735Z,5.18
2022-08-24T02:08:55.931Z,5.45
2022-08-24T02:13:58.516Z,5.60
2022-08-24T02:19:02.209Z,5.43
2022-08-24T02:24:04.813Z,5.25
2022-08-24T02:29:06.551Z,5.47
2022-08-24T02:34:09.145Z,4.88
2022-08-24T02:39:11.654Z,5.63
2022-08-24T02:44:13.378Z,5.85
2022-08-24T02:49:15.874Z,6.45
2022-08-24T02:54:18.815Z,9.57
2022-08-24T02:59:21.348Z,7.65
2022-08-24T03:04:23.469Z,7.28
2022-08-24T03:09:25.215Z,7.10
2022-08-24T03:14:30.774Z,6.18
2022-08-24T03:19:33.788Z,5.50
2022-08-24T03:24:35.771Z,7.22
2022-08-24T03:29:37.974Z,6.13
2022-08-24T03:34:40.144Z,5.25
2022-08-24T03:39:42.006Z,6.63
2022-08-24T03:44:44.256Z,5.88
2022-08-24T03:49:45.955Z,5.63
2022-08-24T03:54:48.798Z,5.38
2022-08-24T03:59:51.298Z,5.82
2022-08-24T04:04:53.517Z,7.38
2022-08-24T04:09:55.260Z,7.55
2022-08-24T04:14:56.995Z,7.97
2022-08-24T04:19:58.883Z,6.80
2022-08-24T04:25:00.763Z,7.15
2022-08-24T04:30:04.149Z,7.10
2022-08-24T04:35:06.581Z,6.10
2022-08-24T04:40:09.645Z,7.00
2022-08-24T04:45:12.408Z,6.80
2022-08-24T04:50:14.643Z,6.70
2022-08-24T04:55:18.042Z,8.35
2022-08-24T05:00:20.520Z,12.80
2022-08-24T05:05:26.807Z,6.72
2022-08-24T05:10:29.341Z,6.20
2022-08-24T05:15:36.441Z,7.07
2022-08-24T05:20:46.338Z,6.43
2022-08-24T05:25:51.249Z,6.22
2022-08-24T05:30:56.671Z,6.47
2022-08-24T05:36:09.469Z,7.38
2022-08-24T05:41:11.767Z,7.45
2022-08-24T05:46:14.437Z,8.20
2022-08-24T05:51:17.646Z,7.95
2022-08-24T05:56:20.470Z,7.68
2022-08-24T06:01:31.715Z,7.50
2022-08-24T06:06:34.338Z,8.20
2022-08-24T06:11:39.491Z,8.13
2022-08-24T06:16:44.681Z,9.15
2022-08-24T06:21:49.641Z,8.15
2022-08-24T06:27:19.511Z,7.82
2022-08-24T06:32:22.237Z,4.95
2022-08-24T06:37:26.747Z,4.20
2022-08-24T06:42:31.945Z,3.75
2022-08-24T06:47:36.796Z,3.00
2022-08-24T06:52:41.966Z,3.20
2022-08-24T06:57:50.410Z,2.95
2022-08-24T07:02:59.579Z,2.45
2022-08-24T07:08:02.683Z,3.47
2022-08-24T07:13:05.062Z,2.60
2022-08-24T07:18:16.150Z,2.42
2022-08-24T07:23:18.966Z,2.70
2022-08-24T07:28:31.828Z,2.85
2022-08-24T07:33:34.910Z,2.00
2022-08-24T07:38:38.094Z,1.92
2022-08-24T07:43:43.147Z,2.42
2022-08-24T07:48:46.402Z,2.30
2022-08-24T07:53:53.874Z,2.53
2022-08-24T07:58:58.007Z,2.00
2022-08-24T08:04:00.065Z,2.25
2022-08-24T08:09:05.550Z,2.35
2022-08-24T08:14:08.473Z,1.83
2022-08-24T08:19:15.112Z,2.08
2022-08-24T08:24:20.702Z,1.83
2022-08-24T08:29:25.327Z,2.20
2022-08-24T08:34:28.061Z,2.10
2022-08-24T08:39:33.688Z,2.35
2022-08-24T08:45:08.002Z,2.03
2022-08-24T08:50:36.900Z,1.90
2022-08-24T08:56:03.800Z,1.63
2022-08-24T09:01:46.640Z,1.60
2022-08-24T09:07:19.358Z,1.58
2022-08-24T09:12:58.010Z,1.57
2022-08-24T09:18:17.229Z,1.67
2022-08-24T09:29:26.158Z,1.98
2022-08-24T09:34:49.218Z,1.45
2022-08-24T09:40:02.996Z,1.75
2022-08-24T09:45:53.971Z,1.75
2022-08-24T09:51:20.347Z,1.83
2022-08-24T09:56:53.819Z,2.20
2022-08-24T10:02:24.186Z,1.70
2022-08-24T10:08:14.180Z,1.88
2022-08-24T10:13:47.735Z,1.77
2022-08-24T10:19:13.668Z,1.80
2022-08-24T10:43:38.021Z,1.67
2022-08-24T10:49:27.913Z,1.50
2022-08-24T10:54:44.624Z,1.23
2022-08-24T11:00:48.992Z,1.00
2022-08-24T11:17:19.173Z,1.70
2022-08-24T11:22:41.657Z,1.40
2022-08-24T11:27:48.245Z,1.52
2022-08-24T11:32:56.554Z,1.23
2022-08-24T11:38:45.827Z,1.15
2022-08-24T11:44:30.542Z,1.63
2022-08-24T11:49:45.181Z,1.70
2022-08-24T11:55:06.273Z,2.22
2022-08-24T12:00:12.165Z,1.98
2022-08-24T12:05:16.932Z,1.50
2022-08-24T12:10:37.598Z,1.70
2022-08-24T12:15:48.688Z,1.57
2022-08-24T12:20:53.800Z,1.70
2022-08-24T12:26:08.029Z,1.30
2022-08-24T12:31:17.768Z,1.40
2022-08-24T12:36:36.111Z,1.50
2022-08-24T12:41:48.502Z,1.42
2022-08-24T12:46:54.334Z,1.42
2022-08-24T12:52:10.921Z,2.13
2022-08-24T12:57:31.510Z,1.90
2022-08-24T13:02:39.398Z,1.57
2022-08-24T13:07:53.064Z,1.65
2022-08-24T13:13:11.493Z,1.30
2022-08-24T13:18:13.134Z,1.33
2022-08-24T13:23:21.461Z,1.40
2022-08-24T13:28:23.169Z,1.48
2022-08-24T13:34:10.032Z,1.42
2022-08-24T13:39:46.990Z,1.00
2022-08-24T13:45:05.396Z,1.38
2022-08-24T13:50:30.309Z,1.50
2022-08-24T13:55:50.252Z,1.70
2022-08-24T14:01:02.703Z,1.05
2022-08-24T14:06:25.400Z,1.40
2022-08-24T14:11:57.394Z,1.30
2022-08-24T14:17:35.351Z,1.17
2022-08-24T14:22:41.600Z,1.70
2022-08-24T14:27:47.275Z,1.33
2022-08-24T14:33:00.966Z,1.30
2022-08-24T14:38:26.822Z,1.55
2022-08-24T14:43:52.939Z,1.20
2022-08-24T14:49:06.632Z,1.67
2022-08-24T14:54:39.237Z,1.52
2022-08-24T15:00:04.466Z,1.30
2022-08-24T15:05:26.646Z,1.20
2022-08-24T15:10:50.526Z,1.35
2022-08-24T15:16:14.748Z,1.35
2022-08-24T15:21:22.681Z,1.30
2022-08-24T15:26:52.099Z,1.52
2022-08-24T15:32:11.363Z,1.30
2022-08-24T15:37:26.873Z,1.20
2022-08-24T15:42:33.931Z,1.15
2022-08-24T15:47:39.376Z,1.25
2022-08-24T15:53:05.247Z,1.10
2022-08-24T15:58:35.310Z,1.40
2022-08-24T16:03:50.407Z,1.20
2022-08-24T16:09:04.416Z,1.30
2022-08-24T16:14:13.957Z,1.25
2022-08-24T16:19:35.298Z,1.40
2022-08-24T16:24:40.378Z,1.20
2022-08-24T16:29:44.759Z,1.40
2022-08-24T16:35:06.797Z,1.30
2022-08-24T16:40:09.454Z,1.42
2022-08-24T16:45:15.358Z,1.25
2022-08-24T16:50:19.483Z,1.25
2022-08-24T16:55:21.225Z,1.65
2022-08-24T17:00:23.128Z,1.52
2022-08-24T17:05:24.993Z,1.90
2022-08-24T17:10:27.548Z,1.40
2022-08-24T17:15:29.253Z,1.50
2022-08-24T17:20:31.981Z,1.20
2022-08-24T17:25:34.371Z,1.63
2022-08-24T17:30:36.560Z,1.60
2022-08-24T17:35:39.267Z,1.38
2022-08-24T17:40:41.068Z,1.48
2022-08-24T17:45:42.949Z,1.35
2022-08-24T17:50:44.780Z,1.63
2022-08-24T17:55:47.040Z,1.88
2022-08-24T18:00:48.773Z,1.45
2022-08-24T18:05:50.584Z,1.65
2022-08-24T18:10:52.422Z,1.30
2022-08-24T18:15:54.348Z,1.25
2022-08-24T18:20:56.181Z,1.52
2022-08-24T18:25:58.014Z,1.70
2022-08-24T18:31:00.039Z,1.50
2022-08-24T18:36:01.761Z,1.75
2022-08-24T18:41:03.878Z,1.67
2022-08-24T18:46:06.134Z,1.48
2022-08-24T18:51:08.004Z,2.15
2022-08-24T18:56:12.394Z,1.90
2022-08-24T19:01:14.805Z,2.22
2022-08-24T19:06:16.881Z,1.80
2022-08-24T19:11:22.978Z,2.25
2022-08-24T19:16:24.703Z,2.30
2022-08-24T19:21:31.176Z,2.00
2022-08-24T19:26:33.399Z,2.17
2022-08-24T19:31:35.376Z,2.10
2022-08-24T19:36:37.425Z,2.63
2022-08-24T19:41:44.762Z,3.20
2022-08-24T19:46:49.243Z,2.55
2022-08-24T19:51:51.477Z,2.95
2022-08-24T19:56:54.318Z,3.17
2022-08-24T20:01:56.059Z,2.92
2022-08-24T20:06:58.082Z,2.45
2022-08-24T20:11:59.826Z,2.65
2022-08-24T20:17:01.860Z,3.17
2022-08-24T20:22:13.294Z,3.10
2022-08-24T20:27:21.589Z,2.88
2022-08-24T20:32:23.316Z,2.60
2022-08-24T20:37:27.485Z,4.18
2022-08-24T20:42:31.687Z,3.50
2022-08-24T20:47:33.491Z,3.00
2022-08-24T20:52:35.212Z,2.72
2022-08-24T20:57:37.698Z,2.83
2022-08-24T21:02:39.810Z,2.95
2022-08-24T21:07:47.749Z,3.10
2022-08-24T21:12:51.169Z,3.30
2022-08-24T21:17:52.918Z,3.08
2022-08-24T21:22:54.749Z,3.35
2022-08-24T21:28:01.301Z,2.63
2022-08-24T21:33:24.634Z,2.67
2022-08-24T21:38:26.569Z,3.17
2022-08-24T21:43:29.539Z,3.17
2022-08-24T21:48:31.285Z,6.25
2022-08-24T21:53:33.022Z,4.30
2022-08-24T21:58:36.398Z,2.85
2022-08-24T22:03:39.953Z,4.15
2022-08-24T22:08:43.701Z,3.83
2022-08-24T22:13:45.900Z,3.58
2022-08-24T22:18:48.611Z,3.63
2022-08-24T22:23:50.443Z,5.70
2022-08-24T22:28:52.444Z,6.70
2022-08-24T22:33:57.045Z,8.30
2022-08-24T22:38:59.881Z,8.02
2022-08-24T22:44:20.829Z,5.88
2022-08-24T22:49:25.273Z,4.72
2022-08-24T22:54:27.712Z,3.92
2022-08-24T22:59:35.857Z,3.50
2022-08-24T23:04:40.973Z,3.45
2022-08-24T23:09:45.426Z,3.78
2022-08-24T23:14:50.401Z,3.42
2022-08-24T23:20:01.937Z,4.10
2022-08-24T23:25:05.735Z,4.07
2022-08-24T23:30:11.123Z,3.83
2022-08-24T23:35:13.108Z,4.35
2022-08-24T23:40:15.114Z,4.93
2022-08-24T23:45:17.093Z,8.23
2022-08-24T23:50:19.331Z,13.02
2022-08-24T23:55:22.252Z,4.68
